Time;durP1;ratioP1;P1;durP2;ratioP2;P2;SDS_P1;SDS_P2;PMS_P1;PMS_P2;Temp;Humidity;BMP_temperature;BMP_pressure;BME280_temperature;BME280_humidity;BME280_pressure;Samples;Min_cycle;Max_cycle;Signal;HPM_P1;HPM_P2
2022/07/28 00:00:58;;;;;;;;;;;19.10;62.70;;;;;;5021788;28;20403;-67
2022/07/28 00:03:24;;;;;;;;;;;19.00;62.60;;;;;;5023862;28;20020;-67
2022/07/28 00:05:49;;;;;;;;;;;19.00;62.80;;;;;;5023727;28;19920;-67
2022/07/28 00:08:15;;;;;;;;;;;19.00;62.80;;;;;;5018606;28;19927;-67
2022/07/28 00:10:40;;;;;;;;;;;18.90;62.80;;;;;;5022722;28;20000;-67
2022/07/28 00:13:06;;;;;;;;;;;18.90;62.80;;;;;;5018156;28;19920;-67
2022/07/28 00:15:31;;;;;;;;;;;18.90;62.90;;;;;;5022504;28;20003;-67
2022/07/28 00:17:57;;;;;;;;;;;18.90;63.00;;;;;;5016921;28;20020;-67
2022/07/28 00:20:22;;;;;;;;;;;18.90;63.10;;;;;;5022035;28;19995;-67
2022/07/28 00:22:48;;;;;;;;;;;18.90;63.20;;;;;;5016925;28;19918;-67
2022/07/28 00:25:14;;;;;;;;;;;18.80;63.20;;;;;;5023392;28;19917;-67
2022/07/28 00:27:39;;;;;;;;;;;18.80;63.20;;;;;;5024765;28;20539;-67
2022/07/28 00:30:05;;;;;;;;;;;18.80;63.20;;;;;;5023171;28;19974;-67
2022/07/28 00:32:31;;;;;;;;;;;18.80;63.00;;;;;;5020260;28;19958;-67
2022/07/28 00:34:56;;;;;;;;;;;18.70;63.30;;;;;;5012119;28;20594;-67
2022/07/28 00:37:22;;;;;;;;;;;18.70;63.10;;;;;;5014840;28;20518;-67
2022/07/28 00:39:47;;;;;;;;;;;18.70;63.30;;;;;;5024407;28;19913;-67
2022/07/28 00:42:16;;;;;;;;;;;18.70;63.20;;;;;;5020853;28;19957;-67
2022/07/28 00:44:41;;;;;;;;;;;18.70;63.20;;;;;;5022675;28;20582;-67
2022/07/28 00:47:07;;;;;;;;;;;18.70;63.30;;;;;;5021928;28;19920;-67
2022/07/28 00:49:32;;;;;;;;;;;18.60;63.30;;;;;;5021016;28;20024;-67
2022/07/28 00:51:58;;;;;;;;;;;18.60;63.30;;;;;;5028104;28;19934;-67
2022/07/28 00:54:24;;;;;;;;;;;18.60;63.30;;;;;;5020933;28;20573;-67
2022/07/28 00:56:49;;;;;;;;;;;18.60;63.30;;;;;;5001679;28;19948;-67
2022/07/28 00:59:15;;;;;;;;;;;18.60;63.60;;;;;;5019857;28;19913;-67
2022/07/28 01:01:40;;;;;;;;;;;18.50;63.40;;;;;;5019697;28;20036;-67
2022/07/28 01:04:06;;;;;;;;;;;18.50;63.60;;;;;;5020119;28;20539;-67
2022/07/28 01:06:41;;;;;;;;;;;18.50;63.50;;;;;;5018757;28;19910;-67
2022/07/28 01:09:06;;;;;;;;;;;18.50;63.70;;;;;;5022455;28;19927;-67
2022/07/28 01:11:41;;;;;;;;;;;18.50;63.60;;;;;;5020126;28;19917;-67
2022/07/28 01:14:14;;;;;;;;;;;18.50;63.60;;;;;;5019782;28;19917;-67
2022/07/28 01:16:44;;;;;;;;;;;18.50;63.80;;;;;;5019798;28;19920;-67
2022/07/28 01:19:21;;;;;;;;;;;18.50;63.80;;;;;;5022020;28;20052;-67
2022/07/28 01:21:47;;;;;;;;;;;18.50;63.80;;;;;;5021426;28;19924;-67
2022/07/28 01:24:20;;;;;;;;;;;18.40;63.80;;;;;;5024095;28;19913;-67
2022/07/28 01:26:46;;;;;;;;;;;18.40;63.80;;;;;;5021559;28;20024;-67
2022/07/28 01:29:38;;;;;;;;;;;18.40;63.80;;;;;;5006380;28;20747;-67
2022/07/28 01:32:13;;;;;;;;;;;18.40;63.90;;;;;;5019020;28;19913;-67
2022/07/28 01:34:43;;;;;;;;;;;18.30;63.80;;;;;;5024598;28;19967;-67
2022/07/28 01:37:10;;;;;;;;;;;18.30;64.00;;;;;;5006022;28;19913;-67
2022/07/28 01:39:37;;;;;;;;;;;18.30;64.00;;;;;;5022398;28;19936;-67
2022/07/28 01:42:05;;;;;;;;;;;18.30;64.00;;;;;;5017448;28;20649;-67
2022/07/28 01:44:31;;;;;;;;;;;18.30;64.00;;;;;;5023640;28;20337;-67
2022/07/28 01:46:57;;;;;;;;;;;18.30;64.00;;;;;;5021112;28;19924;-67
2022/07/28 01:49:25;;;;;;;;;;;18.30;64.10;;;;;;5025074;28;19917;-67
2022/07/28 01:51:51;;;;;;;;;;;18.30;64.10;;;;;;5022010;28;19964;-67
2022/07/28 01:54:17;;;;;;;;;;;18.20;64.10;;;;;;5020073;28;19924;-67
2022/07/28 01:56:45;;;;;;;;;;;18.20;64.10;;;;;;5021244;28;19917;-67
2022/07/28 01:59:11;;;;;;;;;;;18.20;64.10;;;;;;5018776;28;20003;-67
2022/07/28 02:01:39;;;;;;;;;;;18.20;64.20;;;;;;5021165;28;20004;-67
2022/07/28 02:04:05;;;;;;;;;;;18.20;64.20;;;;;;5020177;28;20437;-67
2022/07/28 02:06:32;;;;;;;;;;;18.20;64.30;;;;;;5019993;28;19913;-67
2022/07/28 02:08:58;;;;;;;;;;;18.20;64.40;;;;;;5020923;28;19920;-67
2022/07/28 02:11:38;;;;;;;;;;;18.10;64.30;;;;;;5019065;28;19948;-67
2022/07/28 02:14:08;;;;;;;;;;;18.10;64.40;;;;;;5020096;28;19928;-67
2022/07/28 02:16:33;;;;;;;;;;;18.10;64.40;;;;;;5017103;28;19922;-67
2022/07/28 02:18:59;;;;;;;;;;;18.10;64.30;;;;;;5027553;28;19923;-67
2022/07/28 02:21:25;;;;;;;;;;;18.10;64.40;;;;;;5019760;28;19924;-67
2022/07/28 02:23:51;;;;;;;;;;;18.00;64.40;;;;;;5021986;28;20453;-67
2022/07/28 02:26:17;;;;;;;;;;;18.00;64.50;;;;;;5023756;28;20288;-67
2022/07/28 02:28:45;;;;;;;;;;;18.00;64.50;;;;;;5018858;28;19936;-67
2022/07/28 02:31:13;;;;;;;;;;;18.00;64.60;;;;;;5035207;28;19917;-67
2022/07/28 02:33:40;;;;;;;;;;;18.00;64.60;;;;;;5024128;28;19924;-67
2022/07/28 02:36:11;;;;;;;;;;;17.90;64.60;;;;;;5018733;28;19994;-67
2022/07/28 02:38:43;;;;;;;;;;;17.90;64.70;;;;;;5022524;28;19920;-67
2022/07/28 02:41:12;;;;;;;;;;;17.90;64.70;;;;;;5017564;28;19997;-67
2022/07/28 02:43:38;;;;;;;;;;;17.90;64.60;;;;;;5018072;28;19914;-67
2022/07/28 02:46:07;;;;;;;;;;;17.90;64.70;;;;;;5022719;28;19956;-67
2022/07/28 02:48:35;;;;;;;;;;;17.80;64.60;;;;;;5020535;28;20340;-67
2022/07/28 02:51:01;;;;;;;;;;;17.80;64.70;;;;;;5022102;28;19920;-67
2022/07/28 02:53:27;;;;;;;;;;;17.80;64.80;;;;;;5027324;28;19917;-67
2022/07/28 02:55:53;;;;;;;;;;;17.80;64.80;;;;;;5022517;28;20033;-67
2022/07/28 02:58:23;;;;;;;;;;;17.80;64.80;;;;;;5023902;28;19917;-67
2022/07/28 03:00:49;;;;;;;;;;;17.80;64.90;;;;;;5022328;28;19913;-67
2022/07/28 03:03:16;;;;;;;;;;;17.70;65.20;;;;;;5020402;28;20241;-67
2022/07/28 03:05:41;;;;;;;;;;;17.70;65.00;;;;;;5022942;28;19916;-67
2022/07/28 03:08:07;;;;;;;;;;;17.70;65.00;;;;;;5022339;28;19913;-67
2022/07/28 03:10:32;;;;;;;;;;;17.70;65.00;;;;;;5022510;28;19935;-67
2022/07/28 03:12:59;;;;;;;;;;;17.60;65.00;;;;;;5020796;28;19982;-67
2022/07/28 03:15:25;;;;;;;;;;;17.60;65.10;;;;;;5006382;28;20510;-67
2022/07/28 03:17:50;;;;;;;;;;;17.60;65.10;;;;;;5019067;28;19914;-67
2022/07/28 03:20:16;;;;;;;;;;;17.60;65.10;;;;;;5024376;28;19917;-67
2022/07/28 03:22:41;;;;;;;;;;;17.60;65.20;;;;;;5018374;28;20016;-67
2022/07/28 03:25:11;;;;;;;;;;;17.60;65.30;;;;;;5024609;28;20686;-67
2022/07/28 03:27:38;;;;;;;;;;;17.60;65.30;;;;;;5016843;28;19913;-67
2022/07/28 03:30:09;;;;;;;;;;;17.50;65.30;;;;;;5024781;28;19918;-67
2022/07/28 03:32:36;;;;;;;;;;;17.50;65.30;;;;;;5006928;28;19913;-67
2022/07/28 03:35:02;;;;;;;;;;;17.50;65.40;;;;;;5024599;28;19994;-67
2022/07/28 03:37:33;;;;;;;;;;;17.50;65.40;;;;;;5024042;28;19914;-67
2022/07/28 03:39:59;;;;;;;;;;;17.50;65.40;;;;;;5020100;28;20322;-67
2022/07/28 03:42:25;;;;;;;;;;;17.50;65.40;;;;;;5010387;28;20341;-67
2022/07/28 03:44:51;;;;;;;;;;;17.40;65.50;;;;;;5023830;28;19958;-67
2022/07/28 03:47:21;;;;;;;;;;;17.40;65.50;;;;;;5020603;28;20770;-67
2022/07/28 03:49:46;;;;;;;;;;;17.40;65.50;;;;;;5020387;28;19910;-67
2022/07/28 03:52:12;;;;;;;;;;;17.40;65.50;;;;;;5021529;28;19936;-67
2022/07/28 03:54:37;;;;;;;;;;;17.40;65.60;;;;;;5004727;28;20289;-67
2022/07/28 03:57:03;;;;;;;;;;;17.30;65.70;;;;;;5024153;28;19959;-67
2022/07/28 03:59:29;;;;;;;;;;;17.30;65.60;;;;;;5021932;28;20086;-67
2022/07/28 04:01:55;;;;;;;;;;;17.30;65.60;;;;;;5020076;28;19922;-67
2022/07/28 04:04:21;;;;;;;;;;;17.30;65.70;;;;;;5022027;28;20600;-67
2022/07/28 04:06:46;;;;;;;;;;;17.30;65.70;;;;;;5018139;28;19913;-67
2022/07/28 04:09:12;;;;;;;;;;;17.30;65.70;;;;;;5021257;28;19913;-67
2022/07/28 04:11:37;;;;;;;;;;;17.30;65.90;;;;;;5019503;28;19989;-67
2022/07/28 04:14:03;;;;;;;;;;;17.30;65.90;;;;;;5017556;28;19917;-67
2022/07/28 04:16:28;;;;;;;;;;;17.20;65.80;;;;;;5019242;28;20000;-67
2022/07/28 04:18:54;;;;;;;;;;;17.20;65.90;;;;;;5019889;28;20004;-67
2022/07/28 04:21:21;;;;;;;;;;;17.20;65.90;;;;;;5023604;28;19941;-67
2022/07/28 04:23:47;;;;;;;;;;;17.20;65.90;;;;;;5023127;28;19917;-67
2022/07/28 04:26:13;;;;;;;;;;;17.20;65.90;;;;;;5023258;28;20019;-67
2022/07/28 04:28:38;;;;;;;;;;;17.20;66.00;;;;;;5005592;28;19959;-67
2022/07/28 04:31:04;;;;;;;;;;;17.20;66.00;;;;;;5023618;28;19959;-67
2022/07/28 04:33:29;;;;;;;;;;;17.20;66.10;;;;;;5038544;28;20607;-67
2022/07/28 04:35:55;;;;;;;;;;;17.20;66.10;;;;;;5023570;28;19914;-67
2022/07/28 04:38:20;;;;;;;;;;;17.20;66.20;;;;;;5024972;28;20646;-67
2022/07/28 04:40:46;;;;;;;;;;;17.20;66.20;;;;;;5030163;28;20332;-67
2022/07/28 04:43:12;;;;;;;;;;;17.10;66.20;;;;;;5023250;28;19914;-67
2022/07/28 04:45:38;;;;;;;;;;;17.20;66.20;;;;;;5023264;28;19921;-67
2022/07/28 04:48:04;;;;;;;;;;;17.10;66.20;;;;;;5023027;28;19924;-67
2022/07/28 04:50:29;;;;;;;;;;;17.20;66.30;;;;;;5023097;28;19996;-67
2022/07/28 04:52:55;;;;;;;;;;;17.10;66.30;;;;;;5022892;28;20590;-67
2022/07/28 04:55:20;;;;;;;;;;;17.20;66.40;;;;;;5022707;28;19921;-67
2022/07/28 04:57:46;;;;;;;;;;;17.20;66.40;;;;;;5022713;28;19917;-67
2022/07/28 05:00:13;;;;;;;;;;;17.10;66.40;;;;;;5022335;28;19945;-67
2022/07/28 05:02:39;;;;;;;;;;;17.10;66.30;;;;;;5041294;28;20268;-67
2022/07/28 05:05:04;;;;;;;;;;;17.10;66.40;;;;;;5041318;28;20272;-67
2022/07/28 05:07:30;;;;;;;;;;;17.10;66.40;;;;;;5040599;28;19920;-67
2022/07/28 05:09:55;;;;;;;;;;;17.10;66.40;;;;;;5035985;28;19913;-67
2022/07/28 05:12:21;;;;;;;;;;;17.10;66.40;;;;;;5022588;28;19996;-67
2022/07/28 05:14:46;;;;;;;;;;;17.20;66.50;;;;;;5022565;28;19917;-67
2022/07/28 05:17:12;;;;;;;;;;;17.10;66.50;;;;;;5022299;28;19935;-67
2022/07/28 05:19:37;;;;;;;;;;;17.10;66.70;;;;;;5022449;28;19950;-67
2022/07/28 05:22:03;;;;;;;;;;;17.10;66.60;;;;;;5022693;28;19990;-67
2022/07/28 05:24:28;;;;;;;;;;;17.10;66.60;;;;;;5022265;28;19933;-67
2022/07/28 05:26:54;;;;;;;;;;;17.20;66.70;;;;;;5022223;28;19916;-67
2022/07/28 05:29:19;;;;;;;;;;;17.10;66.80;;;;;;5030615;28;19917;-67
2022/07/28 05:31:45;;;;;;;;;;;17.10;66.80;;;;;;5040682;28;19923;-67
2022/07/28 05:34:10;;;;;;;;;;;17.10;66.80;;;;;;5040210;28;19917;-67
2022/07/28 05:36:36;;;;;;;;;;;17.10;66.80;;;;;;5022304;28;19920;-67
2022/07/28 05:39:02;;;;;;;;;;;17.10;66.90;;;;;;5036413;28;19913;-67
2022/07/28 05:41:27;;;;;;;;;;;17.10;66.70;;;;;;5023180;28;19925;-67
2022/07/28 05:43:53;;;;;;;;;;;17.10;66.80;;;;;;5035490;28;19966;-67
2022/07/28 05:46:18;;;;;;;;;;;17.10;66.60;;;;;;5038716;28;19917;-67
2022/07/28 05:48:44;;;;;;;;;;;17.10;66.80;;;;;;5021898;28;19935;-67
2022/07/28 05:51:10;;;;;;;;;;;17.10;66.90;;;;;;5022061;28;19964;-67
2022/07/28 05:53:35;;;;;;;;;;;17.10;66.90;;;;;;5040388;28;19916;-67
2022/07/28 05:56:01;;;;;;;;;;;17.00;67.00;;;;;;5040241;28;19921;-67
2022/07/28 05:58:27;;;;;;;;;;;17.00;66.90;;;;;;5039773;28;19985;-67
2022/07/28 06:00:52;;;;;;;;;;;17.00;66.90;;;;;;5023756;28;19917;-67
2022/07/28 06:03:18;;;;;;;;;;;17.00;67.00;;;;;;5022085;28;19991;-67
2022/07/28 06:05:43;;;;;;;;;;;17.00;66.80;;;;;;5022269;28;19986;-67
2022/07/28 06:08:09;;;;;;;;;;;17.10;67.10;;;;;;5008504;28;20370;-67
2022/07/28 06:13:18;;;;;;;;;;;17.10;66.90;;;;;;5028185;28;19990;-67
2022/07/28 06:15:45;;;;;;;;;;;17.10;67.00;;;;;;5003791;28;19964;-67
2022/07/28 06:18:11;;;;;;;;;;;17.10;66.90;;;;;;5020524;28;19913;-67
2022/07/28 06:20:37;;;;;;;;;;;17.10;67.00;;;;;;5020897;28;19913;-67
2022/07/28 06:23:02;;;;;;;;;;;17.10;67.00;;;;;;5021705;28;19913;-67
2022/07/28 06:25:28;;;;;;;;;;;17.10;66.90;;;;;;5021711;28;19913;-67
2022/07/28 06:27:59;;;;;;;;;;;17.20;66.90;;;;;;5003379;28;19921;-67
2022/07/28 06:30:25;;;;;;;;;;;17.20;66.90;;;;;;5021614;28;19915;-67
2022/07/28 06:32:50;;;;;;;;;;;17.20;66.90;;;;;;5021760;28;20373;-67
2022/07/28 06:35:16;;;;;;;;;;;17.20;66.80;;;;;;5003488;28;19957;-67
2022/07/28 06:37:42;;;;;;;;;;;17.20;67.20;;;;;;5003180;28;20624;-67
2022/07/28 06:40:10;;;;;;;;;;;17.30;66.90;;;;;;5031779;28;19913;-67
2022/07/28 06:42:36;;;;;;;;;;;17.30;66.80;;;;;;5021385;28;19913;-67
2022/07/28 06:45:01;;;;;;;;;;;17.30;66.80;;;;;;5021484;28;20250;-67
2022/07/28 06:47:27;;;;;;;;;;;17.40;66.80;;;;;;5021640;28;19914;-67
2022/07/28 06:49:52;;;;;;;;;;;17.40;66.70;;;;;;5021586;28;19913;-67
2022/07/28 06:52:19;;;;;;;;;;;17.50;66.70;;;;;;5021595;28;19937;-67
2022/07/28 06:54:45;;;;;;;;;;;17.50;66.80;;;;;;5036680;28;19970;-67
2022/07/28 06:57:12;;;;;;;;;;;17.50;66.60;;;;;;5020725;28;19943;-67
2022/07/28 06:59:38;;;;;;;;;;;17.50;66.60;;;;;;5021076;28;19913;-67
2022/07/28 07:02:03;;;;;;;;;;;17.50;66.70;;;;;;5003589;28;20482;-67
2022/07/28 07:04:29;;;;;;;;;;;17.50;66.60;;;;;;5021373;28;19913;-67
2022/07/28 07:06:55;;;;;;;;;;;17.50;66.60;;;;;;5021123;28;19935;-67
2022/07/28 07:09:20;;;;;;;;;;;17.50;66.60;;;;;;5021821;28;19913;-67
2022/07/28 07:11:46;;;;;;;;;;;17.60;66.60;;;;;;5039423;28;19948;-67
2022/07/28 07:14:11;;;;;;;;;;;17.60;66.50;;;;;;5039418;28;19913;-67
2022/07/28 07:16:36;;;;;;;;;;;17.60;66.60;;;;;;5034885;28;20575;-67
2022/07/28 07:19:02;;;;;;;;;;;17.60;66.50;;;;;;5021676;28;20385;-67
2022/07/28 07:21:27;;;;;;;;;;;17.60;66.40;;;;;;5021336;28;19924;-67
2022/07/28 07:23:53;;;;;;;;;;;17.60;66.40;;;;;;5020990;28;19920;-67
2022/07/28 07:26:18;;;;;;;;;;;17.70;66.40;;;;;;5020752;28;19917;-67
2022/07/28 07:28:44;;;;;;;;;;;17.70;66.30;;;;;;5021142;28;19919;-67
2022/07/28 07:31:10;;;;;;;;;;;17.70;66.30;;;;;;5023672;28;19920;-67
2022/07/28 07:33:35;;;;;;;;;;;17.70;66.20;;;;;;5024325;28;20004;-67
2022/07/28 07:36:01;;;;;;;;;;;17.70;66.10;;;;;;5024542;28;19917;-67
2022/07/28 07:38:26;;;;;;;;;;;17.80;66.20;;;;;;5029960;28;19913;-67
2022/07/28 07:40:51;;;;;;;;;;;17.80;66.10;;;;;;5029987;28;20332;-67
2022/07/28 07:43:17;;;;;;;;;;;17.80;66.10;;;;;;5006473;28;19965;-67
2022/07/28 07:45:43;;;;;;;;;;;17.80;66.00;;;;;;5006530;28;19921;-67
2022/07/28 07:48:09;;;;;;;;;;;17.90;66.00;;;;;;5024175;28;19917;-67
2022/07/28 07:50:34;;;;;;;;;;;17.90;66.00;;;;;;5024271;28;19913;-67
2022/07/28 07:53:00;;;;;;;;;;;17.90;65.90;;;;;;5024241;28;19956;-67
2022/07/28 07:55:26;;;;;;;;;;;18.00;65.90;;;;;;5024106;28;19998;-67
2022/07/28 07:57:51;;;;;;;;;;;17.90;66.40;;;;;;5023180;28;19914;-67
2022/07/28 08:00:17;;;;;;;;;;;18.00;65.80;;;;;;5023818;28;19913;-67
2022/07/28 08:02:42;;;;;;;;;;;18.00;65.70;;;;;;5023924;28;20296;-67
2022/07/28 08:05:08;;;;;;;;;;;18.10;65.60;;;;;;5023818;28;19913;-67
2022/07/28 08:07:34;;;;;;;;;;;18.10;65.50;;;;;;5023392;28;19920;-67
2022/07/28 08:10:00;;;;;;;;;;;18.10;65.60;;;;;;5036087;28;20029;-67
2022/07/28 08:12:25;;;;;;;;;;;18.10;65.60;;;;;;5042231;28;20035;-67
2022/07/28 08:14:52;;;;;;;;;;;18.10;65.50;;;;;;5042052;28;19921;-67
2022/07/28 08:17:17;;;;;;;;;;;18.20;65.60;;;;;;5022590;28;20662;-67
2022/07/28 08:19:43;;;;;;;;;;;18.20;65.50;;;;;;5023547;28;19912;-67
2022/07/28 08:22:08;;;;;;;;;;;18.20;65.60;;;;;;5023893;28;19917;-67
2022/07/28 08:24:34;;;;;;;;;;;18.20;65.50;;;;;;5023680;28;19913;-67
2022/07/28 08:27:03;;;;;;;;;;;18.20;65.50;;;;;;5023521;28;20468;-67
2022/07/28 08:29:28;;;;;;;;;;;18.20;65.50;;;;;;5023804;28;19913;-67
2022/07/28 08:31:54;;;;;;;;;;;18.20;65.50;;;;;;5023966;28;20321;-67
2022/07/28 08:34:19;;;;;;;;;;;18.20;65.40;;;;;;5023672;28;20726;-67
2022/07/28 08:36:45;;;;;;;;;;;18.30;65.40;;;;;;5023360;28;20599;-67
2022/07/28 08:39:11;;;;;;;;;;;18.30;65.30;;;;;;5032594;28;20480;-67
2022/07/28 08:41:45;;;;;;;;;;;18.30;65.20;;;;;;5022939;28;19913;-67
2022/07/28 08:44:16;;;;;;;;;;;18.30;65.10;;;;;;5023413;28;19913;-67
2022/07/28 08:46:42;;;;;;;;;;;18.30;65.10;;;;;;5004952;28;19921;-67
2022/07/28 08:49:08;;;;;;;;;;;18.40;65.10;;;;;;5021083;28;19951;-67
2022/07/28 08:51:35;;;;;;;;;;;18.40;65.00;;;;;;5023432;28;19952;-67
2022/07/28 08:54:02;;;;;;;;;;;18.40;65.00;;;;;;5023288;28;19927;-67
2022/07/28 08:56:30;;;;;;;;;;;18.50;64.80;;;;;;5022299;28;21434;-67
2022/07/28 08:58:56;;;;;;;;;;;18.50;64.80;;;;;;5023187;28;19920;-67
2022/07/28 09:01:21;;;;;;;;;;;18.60;64.80;;;;;;5005271;28;19913;-67
2022/07/28 09:03:48;;;;;;;;;;;18.60;64.70;;;;;;5023181;28;19920;-67
2022/07/28 09:06:13;;;;;;;;;;;18.60;64.60;;;;;;5023009;28;19913;-67
2022/07/28 09:08:39;;;;;;;;;;;18.60;64.60;;;;;;5022431;28;20378;-67
2022/07/28 09:11:06;;;;;;;;;;;18.70;64.50;;;;;;5022682;28;19913;-67
2022/07/28 09:13:33;;;;;;;;;;;18.70;64.50;;;;;;5022812;28;19949;-67
2022/07/28 09:15:58;;;;;;;;;;;18.70;64.40;;;;;;5005254;28;20279;-67
2022/07/28 09:18:24;;;;;;;;;;;18.80;64.40;;;;;;5022645;28;20637;-67
2022/07/28 09:20:49;;;;;;;;;;;18.80;64.40;;;;;;5022912;28;19913;-67
2022/07/28 09:23:15;;;;;;;;;;;18.80;64.30;;;;;;5022632;28;19913;-67
2022/07/28 09:25:40;;;;;;;;;;;18.90;64.30;;;;;;5022668;28;19913;-67
2022/07/28 09:28:13;;;;;;;;;;;18.90;64.20;;;;;;5022644;28;19913;-67
2022/07/28 09:30:43;;;;;;;;;;;18.90;64.10;;;;;;5022912;28;19959;-67
2022/07/28 09:33:18;;;;;;;;;;;19.00;64.10;;;;;;5017662;28;20023;-67
2022/07/28 09:35:49;;;;;;;;;;;19.00;64.00;;;;;;5022801;28;19921;-67
2022/07/28 09:38:15;;;;;;;;;;;19.00;63.90;;;;;;5006655;28;20372;-67
2022/07/28 09:40:41;;;;;;;;;;;19.10;63.80;;;;;;5029762;28;20008;-67
2022/07/28 09:43:07;;;;;;;;;;;19.10;63.70;;;;;;5022600;28;19986;-67
2022/07/28 09:45:33;;;;;;;;;;;19.20;63.70;;;;;;5022723;28;19920;-67
2022/07/28 09:48:08;;;;;;;;;;;19.20;63.60;;;;;;5025777;28;19920;-67
2022/07/28 09:50:34;;;;;;;;;;;19.30;63.60;;;;;;5022734;28;19917;-67
2022/07/28 09:53:13;;;;;;;;;;;19.30;63.50;;;;;;5021477;28;20345;-67
2022/07/28 09:55:52;;;;;;;;;;;19.40;63.40;;;;;;5022503;28;20437;-67
2022/07/28 09:58:17;;;;;;;;;;;19.50;63.30;;;;;;5033179;28;20557;-67
2022/07/28 10:00:44;;;;;;;;;;;19.50;63.10;;;;;;5040000;28;20012;-67
2022/07/28 10:03:10;;;;;;;;;;;19.50;63.00;;;;;;5041067;28;20451;-67
2022/07/28 10:05:39;;;;;;;;;;;19.60;62.90;;;;;;5055306;28;19912;-67
2022/07/28 10:08:05;;;;;;;;;;;19.70;62.90;;;;;;5036283;28;20461;-67
2022/07/28 10:10:30;;;;;;;;;;;19.70;62.70;;;;;;5022029;28;19913;-67
2022/07/28 10:13:04;;;;;;;;;;;19.80;62.90;;;;;;5017986;28;19920;-67
2022/07/28 10:18:13;;;;;;;;;;;19.80;62.60;;;;;;5030667;28;19955;-67
2022/07/28 10:20:39;;;;;;;;;;;19.90;62.50;;;;;;5022247;28;19913;-67
2022/07/28 10:23:05;;;;;;;;;;;19.90;62.50;;;;;;5015729;28;19941;-67
2022/07/28 10:25:32;;;;;;;;;;;20.00;62.50;;;;;;5021701;28;19940;-67
2022/07/28 10:27:58;;;;;;;;;;;20.00;62.40;;;;;;5021142;28;19922;-67
2022/07/28 10:30:24;;;;;;;;;;;20.10;62.50;;;;;;5035164;28;19913;-67
2022/07/28 10:32:51;;;;;;;;;;;20.20;62.40;;;;;;5021787;28;19917;-67
2022/07/28 10:35:18;;;;;;;;;;;20.20;62.40;;;;;;5021837;28;20410;-67
2022/07/28 10:38:02;;;;;;;;;;;20.30;62.40;;;;;;5021680;28;19958;-67
2022/07/28 10:40:30;;;;;;;;;;;20.30;62.30;;;;;;5017166;28;19996;-67
2022/07/28 10:42:57;;;;;;;;;;;20.30;62.20;;;;;;5021537;28;20420;-67
2022/07/28 10:45:23;;;;;;;;;;;20.50;62.00;;;;;;5003716;28;20028;-67
2022/07/28 10:47:49;;;;;;;;;;;20.50;62.10;;;;;;5021215;28;19947;-67
2022/07/28 10:50:15;;;;;;;;;;;20.60;62.30;;;;;;5021707;28;20215;-67
2022/07/28 10:52:40;;;;;;;;;;;20.70;62.10;;;;;;5021193;28;19913;-67
2022/07/28 10:55:25;;;;;;;;;;;20.80;62.00;;;;;;5021399;28;20004;-67
2022/07/28 10:58:10;;;;;;;;;;;20.90;61.80;;;;;;5039305;28;19920;-67
2022/07/28 11:00:42;;;;;;;;;;;21.00;61.60;;;;;;5018038;28;19913;-67
2022/07/28 11:03:07;;;;;;;;;;;21.10;61.50;;;;;;5039723;28;20643;-67
2022/07/28 11:05:35;;;;;;;;;;;21.30;61.70;;;;;;5023539;28;19924;-67
2022/07/28 11:08:03;;;;;;;;;;;21.40;61.50;;;;;;5006464;28;19913;-67
2022/07/28 11:10:40;;;;;;;;;;;21.50;61.50;;;;;;5024706;28;20277;-66
2022/07/28 11:13:06;;;;;;;;;;;21.60;61.40;;;;;;5024433;28;19913;-66
2022/07/28 11:15:36;;;;;;;;;;;21.70;61.80;;;;;;5024984;28;19965;-66
2022/07/28 11:18:07;;;;;;;;;;;21.90;61.80;;;;;;5023985;28;20015;-66
2022/07/28 11:20:57;;;;;;;;;;;22.00;61.50;;;;;;5024241;28;19996;-67
2022/07/28 11:23:39;;;;;;;;;;;22.10;61.20;;;;;;5022332;28;19993;-67
2022/07/28 11:26:20;;;;;;;;;;;22.20;61.10;;;;;;5024541;28;20008;-66
2022/07/28 11:29:09;;;;;;;;;;;22.30;60.90;;;;;;5024444;28;19921;-66
2022/07/28 11:31:44;;;;;;;;;;;22.40;60.80;;;;;;5024392;28;19941;-66
2022/07/28 11:34:09;;;;;;;;;;;22.60;60.80;;;;;;5024353;28;20552;-66
2022/07/28 11:36:57;;;;;;;;;;;22.70;60.70;;;;;;5024253;28;19956;-66
2022/07/28 11:39:23;;;;;;;;;;;22.80;60.80;;;;;;5036877;28;19945;-66
2022/07/28 11:41:49;;;;;;;;;;;22.90;60.60;;;;;;5006870;28;19917;-66
2022/07/28 11:44:25;;;;;;;;;;;22.90;60.50;;;;;;5039912;28;19982;-66
2022/07/28 11:46:50;;;;;;;;;;;23.00;60.60;;;;;;5024231;28;19921;-67
2022/07/28 11:49:18;;;;;;;;;;;23.10;60.60;;;;;;5024373;28;19916;-66
2022/07/28 11:52:02;;;;;;;;;;;23.20;60.50;;;;;;5024396;28;19934;-67
2022/07/28 11:54:28;;;;;;;;;;;23.30;60.50;;;;;;5024949;28;19963;-67
2022/07/28 11:56:57;;;;;;;;;;;23.40;60.40;;;;;;5034233;28;19928;-66
2022/07/28 11:59:23;;;;;;;;;;;23.40;60.30;;;;;;5024700;28;19913;-66
2022/07/28 12:01:52;;;;;;;;;;;23.50;60.40;;;;;;5024585;28;20382;-66
2022/07/28 12:04:18;;;;;;;;;;;23.50;60.20;;;;;;5042431;28;19949;-66
2022/07/28 12:06:45;;;;;;;;;;;23.60;60.20;;;;;;5042273;28;19942;-66
2022/07/28 12:09:14;;;;;;;;;;;23.60;60.30;;;;;;5042516;28;20080;-66
2022/07/28 12:11:40;;;;;;;;;;;23.70;60.50;;;;;;5021547;28;19924;-66
2022/07/28 12:14:09;;;;;;;;;;;23.80;60.70;;;;;;5023908;28;19921;-66
2022/07/28 12:16:37;;;;;;;;;;;23.80;60.40;;;;;;5022471;28;19926;-66
2022/07/28 12:19:03;;;;;;;;;;;23.80;60.40;;;;;;5024199;28;19913;-66
2022/07/28 12:21:45;;;;;;;;;;;23.90;60.40;;;;;;5023764;28;20537;-67
2022/07/28 12:24:12;;;;;;;;;;;24.00;60.20;;;;;;5023886;28;20000;-66
2022/07/28 12:26:38;;;;;;;;;;;24.00;60.20;;;;;;5020859;28;19924;-67
2022/07/28 12:29:04;;;;;;;;;;;24.10;59.90;;;;;;5022388;28;20320;-66
2022/07/28 12:31:33;;;;;;;;;;;24.10;59.80;;;;;;5023457;28;19917;-67
2022/07/28 12:33:58;;;;;;;;;;;24.20;59.90;;;;;;5022996;28;20001;-66
2022/07/28 12:36:24;;;;;;;;;;;24.20;59.70;;;;;;5022530;28;19952;-67
2022/07/28 12:38:50;;;;;;;;;;;24.30;59.80;;;;;;5030278;28;19912;-67
2022/07/28 12:41:16;;;;;;;;;;;24.30;59.70;;;;;;5024482;28;19948;-67
2022/07/28 12:43:48;;;;;;;;;;;24.30;59.70;;;;;;5022484;28;19936;-66
2022/07/28 12:46:27;;;;;;;;;;;24.30;60.40;;;;;;5028941;28;19982;-67
2022/07/28 12:48:54;;;;;;;;;;;24.30;60.10;;;;;;5023166;28;19913;-66
2022/07/28 12:51:35;;;;;;;;;;;24.40;59.50;;;;;;5022939;28;19913;-66
2022/07/28 12:54:04;;;;;;;;;;;24.50;59.70;;;;;;5022881;28;20426;-67
2022/07/28 12:56:30;;;;;;;;;;;24.60;59.60;;;;;;5022295;28;20605;-66
2022/07/28 12:59:03;;;;;;;;;;;24.60;59.10;;;;;;5022261;28;19921;-67
2022/07/28 13:01:47;;;;;;;;;;;24.70;58.80;;;;;;5021519;28;19913;-66
2022/07/28 13:04:13;;;;;;;;;;;24.80;58.80;;;;;;5022457;28;19967;-66
2022/07/28 13:06:39;;;;;;;;;;;24.90;58.60;;;;;;5021081;28;20374;-67
2022/07/28 13:09:05;;;;;;;;;;;25.00;59.00;;;;;;5022264;28;19953;-67
2022/07/28 13:11:31;;;;;;;;;;;25.00;58.30;;;;;;5021953;28;19945;-66
2022/07/28 13:13:56;;;;;;;;;;;25.00;58.40;;;;;;5021982;28;20316;-67
2022/07/28 13:16:23;;;;;;;;;;;25.00;58.30;;;;;;5021604;28;19935;-66
2022/07/28 13:18:52;;;;;;;;;;;25.10;58.40;;;;;;5021767;28;19913;-66
2022/07/28 13:21:36;;;;;;;;;;;25.20;58.20;;;;;;5039561;28;20037;-66
2022/07/28 13:24:02;;;;;;;;;;;25.30;58.10;;;;;;5040871;28;20007;-66
2022/07/28 13:26:27;;;;;;;;;;;25.30;58.20;;;;;;5039938;28;20007;-67
2022/07/28 13:29:00;;;;;;;;;;;25.40;58.50;;;;;;5039684;28;19928;-66
2022/07/28 13:31:26;;;;;;;;;;;25.50;58.40;;;;;;5039645;28;20333;-66
2022/07/28 13:33:51;;;;;;;;;;;25.60;58.20;;;;;;5016519;28;20014;-67
2022/07/28 13:36:17;;;;;;;;;;;25.60;58.20;;;;;;5021298;28;19917;-66
2022/07/28 13:38:42;;;;;;;;;;;25.60;58.10;;;;;;5023997;28;19922;-66
2022/07/28 13:41:07;;;;;;;;;;;25.70;58.10;;;;;;5020769;28;19924;-66
2022/07/28 13:43:33;;;;;;;;;;;25.70;58.10;;;;;;5021412;28;19923;-66
2022/07/28 13:45:59;;;;;;;;;;;25.70;58.30;;;;;;5021678;28;19921;-67
2022/07/28 13:48:24;;;;;;;;;;;25.60;58.40;;;;;;5026860;28;19913;-67
2022/07/28 13:50:49;;;;;;;;;;;25.60;58.40;;;;;;5021405;28;20829;-67
2022/07/28 13:53:15;;;;;;;;;;;25.60;58.40;;;;;;5025716;28;19924;-66
2022/07/28 13:55:40;;;;;;;;;;;25.70;58.30;;;;;;5023132;28;19914;-66
2022/07/28 13:58:06;;;;;;;;;;;25.80;58.40;;;;;;5003342;28;19949;-66
2022/07/28 14:00:31;;;;;;;;;;;25.80;58.30;;;;;;5020857;28;19919;-67
2022/07/28 14:02:57;;;;;;;;;;;25.90;58.10;;;;;;5021642;28;19920;-66
2022/07/28 14:05:22;;;;;;;;;;;26.00;57.70;;;;;;5021448;28;19919;-67
2022/07/28 14:07:48;;;;;;;;;;;26.00;57.80;;;;;;5021144;28;19913;-66
2022/07/28 14:10:14;;;;;;;;;;;26.10;57.40;;;;;;5020837;28;20687;-66
2022/07/28 14:12:39;;;;;;;;;;;26.10;57.40;;;;;;5021715;28;19981;-66
2022/07/28 14:15:06;;;;;;;;;;;26.20;57.20;;;;;;5003342;28;20484;-66
2022/07/28 14:17:31;;;;;;;;;;;26.30;57.10;;;;;;5020945;28;20301;-66
2022/07/28 14:19:57;;;;;;;;;;;26.30;57.10;;;;;;5020738;28;19917;-66
2022/07/28 14:22:23;;;;;;;;;;;26.40;57.00;;;;;;5020516;28;19913;-66